Time;durP1;ratioP1;P1;durP2;ratioP2;P2;SDS_P1;SDS_P2;PMS_P1;PMS_P2;Temp;Humidity;BMP_temperature;BMP_pressure;BME280_temperature;BME280_humidity;BME280_pressure;Samples;Min_cycle;Max_cycle;Signal;HPM_P1;HPM_P2
2021/09/17 00:01:14;;;;;;;;;;;26.00;99.90;;;;;;1901410;75;20166;-85
2021/09/17 00:03:44;;;;;;;;;;;26.00;99.90;;;;;;1905522;75;20207;-85
2021/09/17 00:09:25;;;;;;;;;;;26.00;99.90;;;;;;1879733;76;20175;-86
2021/09/17 00:11:55;;;;;;;;;;;26.00;99.90;;;;;;1899295;75;20130;-86
2021/09/17 00:14:24;;;;;;;;;;;26.00;99.90;;;;;;1909995;75;20185;-87
2021/09/17 00:16:54;;;;;;;;;;;26.00;99.90;;;;;;1911515;74;20167;-87
2021/09/17 00:19:24;;;;;;;;;;;26.10;99.90;;;;;;1876391;75;20124;-86
2021/09/17 00:21:53;;;;;;;;;;;26.10;99.90;;;;;;1895154;75;20177;-85
2021/09/17 00:24:23;;;;;;;;;;;26.10;99.90;;;;;;1920241;74;20200;-85
2021/09/17 00:26:53;;;;;;;;;;;26.10;99.90;;;;;;1919638;74;20111;-86
2021/09/17 00:29:23;;;;;;;;;;;26.10;99.90;;;;;;1902036;74;20525;-86
2021/09/17 00:31:52;;;;;;;;;;;26.10;99.90;;;;;;1905734;75;20177;-86
2021/09/17 00:34:24;;;;;;;;;;;26.10;99.90;;;;;;1910954;73;20238;-87
2021/09/17 00:36:54;;;;;;;;;;;26.00;99.90;;;;;;1905028;75;20205;-86
2021/09/17 00:39:24;;;;;;;;;;;26.00;99.90;;;;;;1881182;75;20120;-87
2021/09/17 00:41:53;;;;;;;;;;;26.00;99.90;;;;;;1880609;76;20223;-87
2021/09/17 00:44:24;;;;;;;;;;;26.10;99.90;;;;;;1880945;75;20461;-88
2021/09/17 00:46:54;;;;;;;;;;;26.10;99.90;;;;;;1792286;78;20238;-87
2021/09/17 00:49:25;;;;;;;;;;;26.10;99.90;;;;;;1790023;80;20131;-87
2021/09/17 00:51:56;;;;;;;;;;;26.10;99.90;;;;;;1794998;78;20492;-88
2021/09/17 00:54:28;;;;;;;;;;;26.10;99.90;;;;;;1799620;80;20186;-87
2021/09/17 00:56:58;;;;;;;;;;;26.10;99.90;;;;;;1798788;80;20182;-86
2021/09/17 01:08:48;;;;;;;;;;;26.20;99.90;;;;;;1803164;79;20213;-87
2021/09/17 01:13:50;;;;;;;;;;;26.20;99.90;;;;;;1822015;77;20223;-87
2021/09/17 01:16:20;;;;;;;;;;;26.20;99.90;;;;;;1821755;78;20376;-87
2021/09/17 01:18:51;;;;;;;;;;;26.30;99.90;;;;;;1835739;77;20231;-87
2021/09/17 01:21:23;;;;;;;;;;;26.30;99.90;;;;;;1807039;77;20122;-87
2021/09/17 01:23:55;;;;;;;;;;;26.30;99.90;;;;;;1845230;74;20174;-88
2021/09/17 01:26:25;;;;;;;;;;;26.40;99.90;;;;;;1895041;75;20297;-86
2021/09/17 01:28:54;;;;;;;;;;;26.50;99.90;;;;;;1865743;75;20169;-87
2021/09/17 01:31:24;;;;;;;;;;;26.50;99.90;;;;;;1896445;74;20201;-87
2021/09/17 01:33:54;;;;;;;;;;;26.50;99.90;;;;;;1888341;74;20283;-87
2021/09/17 01:39:26;;;;;;;;;;;26.60;99.90;;;;;;1878529;75;20188;-87
2021/09/17 01:41:57;;;;;;;;;;;26.60;99.90;;;;;;1886173;74;20231;-89
2021/09/17 01:44:27;;;;;;;;;;;26.60;99.90;;;;;;1917415;74;20215;-88
2021/09/17 01:46:56;;;;;;;;;;;26.70;99.90;;;;;;1896307;75;20182;-87
2021/09/17 01:52:38;;;;;;;;;;;26.80;99.90;;;;;;1902426;74;20141;-87
2021/09/17 01:55:08;;;;;;;;;;;26.90;99.90;;;;;;1920616;74;20232;-88
2021/09/17 01:57:39;;;;;;;;;;;27.00;99.90;;;;;;1909393;74;20500;-88
2021/09/17 02:00:10;;;;;;;;;;;27.00;99.90;;;;;;1866191;75;20573;-87
2021/09/17 02:02:40;;;;;;;;;;;27.10;99.90;;;;;;1879780;75;20234;-87
2021/09/17 02:05:11;;;;;;;;;;;27.10;99.90;;;;;;1906683;75;20205;-87
2021/09/17 02:10:40;;;;;;;;;;;27.20;99.90;;;;;;1905059;74;20421;-87
2021/09/17 02:13:12;;;;;;;;;;;27.30;99.90;;;;;;1904091;74;20529;-87
2021/09/17 02:15:41;;;;;;;;;;;27.30;99.90;;;;;;1884677;75;20481;-86
2021/09/17 02:18:12;;;;;;;;;;;27.40;99.90;;;;;;1884305;74;20205;-87
2021/09/17 02:20:42;;;;;;;;;;;27.60;99.90;;;;;;1897465;74;20313;-89
2021/09/17 02:23:15;;;;;;;;;;;27.70;99.90;;;;;;1893304;73;20231;-89
2021/09/17 02:25:48;;;;;;;;;;;27.80;99.90;;;;;;1872393;75;20187;-88
2021/09/17 02:28:18;;;;;;;;;;;27.90;99.90;;;;;;1888488;73;20578;-90
2021/09/17 02:30:50;;;;;;;;;;;28.00;99.90;;;;;;1894273;74;20149;-88
2021/09/17 02:33:28;;;;;;;;;;;28.10;99.90;;;;;;1872167;73;20188;-88
2021/09/17 02:35:58;;;;;;;;;;;28.30;99.90;;;;;;1923801;72;20220;-88
2021/09/17 02:38:27;;;;;;;;;;;28.40;99.90;;;;;;1937043;72;20163;-88
2021/09/17 02:40:57;;;;;;;;;;;28.40;99.90;;;;;;1941744;72;20156;-88
2021/09/17 02:43:27;;;;;;;;;;;28.50;99.90;;;;;;1886264;74;20183;-88
2021/09/17 02:45:58;;;;;;;;;;;28.50;99.90;;;;;;1869553;74;20183;-87
2021/09/17 02:48:28;;;;;;;;;;;28.50;99.90;;;;;;1874017;75;20681;-87
2021/09/17 02:50:58;;;;;;;;;;;28.50;99.90;;;;;;1896209;73;20535;-88
2021/09/17 02:53:30;;;;;;;;;;;28.50;99.90;;;;;;1860257;74;20254;-88
2021/09/17 02:56:01;;;;;;;;;;;28.70;99.90;;;;;;1878226;75;20118;-88
2021/09/17 02:58:36;;;;;;;;;;;28.70;99.90;;;;;;1872595;75;20221;-87
2021/09/17 03:01:07;;;;;;;;;;;28.90;99.90;;;;;;1866481;74;20156;-89
2021/09/17 03:03:44;;;;;;;;;;;29.00;99.90;;;;;;1863783;74;20458;-88
2021/09/17 03:06:26;;;;;;;;;;;29.00;99.90;;;;;;1870908;75;20450;-87
2021/09/17 03:08:55;;;;;;;;;;;29.10;99.90;;;;;;1856544;75;20490;-88
2021/09/17 03:11:25;;;;;;;;;;;29.00;99.90;;;;;;1886325;75;20179;-88
2021/09/17 03:13:57;;;;;;;;;;;29.00;99.90;;;;;;1840121;76;20113;-88
2021/09/17 03:16:25;;;;;;;;;;;29.10;99.90;;;;;;1921860;73;20206;-89
2021/09/17 03:18:55;;;;;;;;;;;29.10;99.90;;;;;;1913166;73;20142;-88
2021/09/17 03:21:24;;;;;;;;;;;29.10;99.90;;;;;;1900774;74;20173;-88
2021/09/17 03:23:57;;;;;;;;;;;29.20;99.90;;;;;;1909962;74;20209;-88
2021/09/17 03:26:27;;;;;;;;;;;29.30;99.90;;;;;;1930477;73;20413;-88
2021/09/17 03:28:57;;;;;;;;;;;29.50;99.90;;;;;;1936483;73;20159;-89
2021/09/17 03:31:28;;;;;;;;;;;29.50;99.90;;;;;;1916878;73;20161;-87
2021/09/17 03:34:04;;;;;;;;;;;29.70;99.90;;;;;;1932584;73;20171;-88
2021/09/17 03:36:34;;;;;;;;;;;29.90;99.90;;;;;;1918937;73;20163;-88
2021/09/17 03:42:29;;;;;;;;;;;29.90;99.30;;;;;;1921725;73;20281;-89
2021/09/17 03:45:02;;;;;;;;;;;30.00;99.60;;;;;;1897301;74;20199;-86
2021/09/17 03:47:35;;;;;;;;;;;30.00;98.80;;;;;;1883058;74;20119;-87
2021/09/17 03:50:06;;;;;;;;;;;30.10;98.30;;;;;;1864822;76;20215;-85
2021/09/17 03:52:40;;;;;;;;;;;30.20;97.90;;;;;;1830742;76;20692;-86
2021/09/17 03:55:09;;;;;;;;;;;30.20;97.00;;;;;;1881421;75;20138;-86
2021/09/17 03:57:38;;;;;;;;;;;30.10;97.50;;;;;;1883357;75;20139;-87
2021/09/17 04:00:08;;;;;;;;;;;30.10;97.80;;;;;;1896092;75;20112;-88
2021/09/17 04:02:38;;;;;;;;;;;30.10;97.30;;;;;;1891148;75;20209;-88
2021/09/17 04:05:09;;;;;;;;;;;30.10;97.10;;;;;;1905025;73;20234;-87
2021/09/17 04:07:40;;;;;;;;;;;30.10;98.30;;;;;;1884766;75;20508;-87
2021/09/17 04:10:11;;;;;;;;;;;30.10;97.20;;;;;;1892440;75;20281;-88
2021/09/17 04:12:41;;;;;;;;;;;30.20;97.70;;;;;;1905760;73;20205;-87
2021/09/17 04:15:12;;;;;;;;;;;30.40;98.00;;;;;;1884535;75;20201;-87
2021/09/17 04:17:43;;;;;;;;;;;30.40;97.70;;;;;;1898815;75;20211;-88
2021/09/17 04:20:13;;;;;;;;;;;30.40;97.80;;;;;;1904742;75;20207;-87
2021/09/17 04:22:43;;;;;;;;;;;30.40;97.10;;;;;;1903840;75;20199;-87
2021/09/17 04:25:13;;;;;;;;;;;30.50;97.80;;;;;;1912850;73;20164;-87
2021/09/17 04:27:46;;;;;;;;;;;30.60;97.00;;;;;;1911204;75;20234;-87
2021/09/17 04:33:14;;;;;;;;;;;30.60;96.90;;;;;;1885996;76;20480;-87
2021/09/17 04:35:39;;;;;;;;;;;30.50;96.90;;;;;;1885088;76;20155;-87
2021/09/17 04:38:09;;;;;;;;;;;30.40;97.50;;;;;;1885168;75;20147;-86
2021/09/17 04:40:39;;;;;;;;;;;30.40;97.20;;;;;;1883726;75;20160;-87
2021/09/17 04:43:08;;;;;;;;;;;30.30;96.50;;;;;;1870925;76;20229;-87
2021/09/17 04:51:45;;;;;;;;;;;30.30;97.60;;;;;;1873674;75;20300;-87
2021/09/17 04:57:36;;;;;;;;;;;30.20;97.10;;;;;;1892771;75;20234;-87
2021/09/17 05:00:07;;;;;;;;;;;30.20;97.20;;;;;;1889161;76;20269;-87
2021/09/17 05:02:36;;;;;;;;;;;30.10;96.90;;;;;;1884228;76;20206;-86
2021/09/17 05:05:08;;;;;;;;;;;30.10;97.60;;;;;;1886083;74;20441;-87
2021/09/17 05:07:38;;;;;;;;;;;30.10;96.70;;;;;;1871285;76;20161;-87
2021/09/17 05:10:14;;;;;;;;;;;30.00;97.70;;;;;;1888237;74;20173;-86
2021/09/17 05:12:44;;;;;;;;;;;30.00;97.50;;;;;;1913857;74;20132;-86
2021/09/17 05:15:15;;;;;;;;;;;30.00;96.70;;;;;;1874390;74;20186;-87
2021/09/17 05:20:41;;;;;;;;;;;30.00;97.50;;;;;;1839127;77;20254;-86
2021/09/17 05:26:41;;;;;;;;;;;30.00;97.90;;;;;;1859545;77;20615;-86
2021/09/17 05:29:11;;;;;;;;;;;29.90;97.40;;;;;;1824298;77;20199;-86
2021/09/17 05:34:40;;;;;;;;;;;30.00;98.10;;;;;;1823548;77;20216;-87
2021/09/17 05:37:09;;;;;;;;;;;30.00;98.10;;;;;;1853355;77;20173;-87
2021/09/17 05:39:41;;;;;;;;;;;30.00;97.80;;;;;;1847112;77;20622;-87
2021/09/17 05:42:11;;;;;;;;;;;29.90;98.00;;;;;;1851935;77;20190;-87
2021/09/17 05:47:38;;;;;;;;;;;29.90;98.40;;;;;;1846223;76;20208;-87
2021/09/17 05:53:15;;;;;;;;;;;29.90;98.80;;;;;;1830041;77;20611;-87
2021/09/17 05:58:44;;;;;;;;;;;29.80;98.40;;;;;;1872555;74;20185;-87
2021/09/17 06:01:14;;;;;;;;;;;29.80;98.80;;;;;;1872008;76;20198;-86
2021/09/17 06:03:44;;;;;;;;;;;29.80;98.50;;;;;;1883410;75;20213;-87
2021/09/17 06:06:16;;;;;;;;;;;29.80;98.30;;;;;;1876092;75;20140;-89
2021/09/17 06:11:30;;;;;;;;;;;29.90;97.80;;;;;;1819082;77;20204;-87
2021/09/17 06:13:57;;;;;;;;;;;29.90;97.60;;;;;;1816234;77;20261;-87
2021/09/17 06:16:27;;;;;;;;;;;29.90;97.00;;;;;;1812487;78;20235;-87
2021/09/17 06:19:03;;;;;;;;;;;30.00;97.10;;;;;;1804443;77;20199;-87
2021/09/17 06:21:44;;;;;;;;;;;29.90;97.40;;;;;;1812029;77;20200;-86
2021/09/17 06:24:21;;;;;;;;;;;30.00;97.60;;;;;;1849541;75;20218;-87
2021/09/17 06:27:00;;;;;;;;;;;30.10;97.50;;;;;;1833372;75;20131;-87
2021/09/17 06:29:34;;;;;;;;;;;30.10;97.00;;;;;;1822054;77;20209;-86
2021/09/17 06:32:05;;;;;;;;;;;30.10;97.10;;;;;;1835318;76;20223;-87
2021/09/17 06:34:42;;;;;;;;;;;30.20;96.90;;;;;;1853994;76;20213;-88
2021/09/17 06:37:12;;;;;;;;;;;30.10;96.40;;;;;;1857007;77;20484;-89
2021/09/17 06:39:43;;;;;;;;;;;30.10;96.20;;;;;;1857887;76;20468;-88
2021/09/17 06:42:13;;;;;;;;;;;30.10;96.40;;;;;;1852213;77;20252;-89
2021/09/17 06:44:43;;;;;;;;;;;30.10;96.50;;;;;;1825495;77;20175;-86
2021/09/17 06:47:17;;;;;;;;;;;30.10;97.30;;;;;;1835102;77;20213;-88
2021/09/17 06:49:53;;;;;;;;;;;30.10;97.10;;;;;;1898587;74;20118;-89
2021/09/17 06:52:25;;;;;;;;;;;30.10;97.30;;;;;;1931003;73;20199;-87
2021/09/17 06:54:55;;;;;;;;;;;30.10;97.40;;;;;;1900920;74;20161;-88
2021/09/17 06:57:24;;;;;;;;;;;30.10;97.50;;;;;;1900663;74;20174;-87
2021/09/17 07:00:02;;;;;;;;;;;30.10;97.60;;;;;;1902013;74;20193;-86
2021/09/17 07:02:29;;;;;;;;;;;30.10;97.30;;;;;;1915395;74;20178;-88
2021/09/17 07:04:59;;;;;;;;;;;30.20;97.00;;;;;;1907647;73;20122;-86
2021/09/17 07:10:39;;;;;;;;;;;30.10;97.20;;;;;;1873863;74;20195;-88
2021/09/17 07:13:10;;;;;;;;;;;30.20;96.60;;;;;;1867642;76;20201;-90
2021/09/17 07:16:12;;;;;;;;;;;30.10;96.90;;;;;;1868802;75;20211;-87
2021/09/17 07:21:31;;;;;;;;;;;30.10;97.70;;;;;;1885669;74;20261;-88
2021/09/17 07:24:05;;;;;;;;;;;30.10;97.50;;;;;;1873121;76;20132;-90
2021/09/17 07:26:37;;;;;;;;;;;30.10;97.40;;;;;;1876983;75;20220;-87
2021/09/17 07:29:27;;;;;;;;;;;30.10;96.90;;;;;;1820957;76;20228;-87
2021/09/17 07:31:56;;;;;;;;;;;30.10;97.10;;;;;;1834152;77;20162;-88
2021/09/17 07:34:26;;;;;;;;;;;30.10;97.20;;;;;;1836683;77;20238;-86
2021/09/17 07:36:56;;;;;;;;;;;30.10;96.70;;;;;;1833816;77;20200;-88
2021/09/17 07:39:27;;;;;;;;;;;30.00;97.00;;;;;;1846670;77;20141;-87
2021/09/17 07:42:18;;;;;;;;;;;;;;;;;;;;;
2021/09/17 07:45:13;;;;;;;;;;;30.00;96.80;;;;;;1851826;76;20341;-86
2021/09/17 07:47:46;;;;;;;;;;;29.90;96.60;;;;;;1858332;75;20204;-86
2021/09/17 07:50:35;;;;;;;;;;;30.00;96.60;;;;;;1869599;74;20110;-86
2021/09/17 07:53:12;;;;;;;;;;;30.00;96.50;;;;;;1893897;74;20210;-86
2021/09/17 07:55:51;;;;;;;;;;;30.00;96.80;;;;;;1852660;74;20243;-85
2021/09/17 07:58:21;;;;;;;;;;;30.00;96.60;;;;;;1891905;74;20209;-86
2021/09/17 08:00:59;;;;;;;;;;;30.10;96.70;;;;;;1875960;74;20152;-86
2021/09/17 08:03:32;;;;;;;;;;;30.10;95.70;;;;;;1881189;74;20174;-88
2021/09/17 08:06:06;;;;;;;;;;;30.00;95.80;;;;;;1896176;74;20275;-87
2021/09/17 08:08:37;;;;;;;;;;;30.00;95.70;;;;;;1882768;74;20522;-87
2021/09/17 08:11:07;;;;;;;;;;;30.00;95.70;;;;;;1911882;73;20145;-86
2021/09/17 08:13:38;;;;;;;;;;;30.00;96.30;;;;;;1912308;73;20264;-86
2021/09/17 08:16:09;;;;;;;;;;;30.00;96.20;;;;;;1906421;73;20129;-87
2021/09/17 08:18:38;;;;;;;;;;;30.00;96.50;;;;;;1911975;73;20171;-85
2021/09/17 08:21:08;;;;;;;;;;;30.10;97.10;;;;;;1923341;73;20123;-84
2021/09/17 08:23:41;;;;;;;;;;;30.10;97.40;;;;;;1912092;73;20250;-85
2021/09/17 08:26:11;;;;;;;;;;;30.10;97.60;;;;;;1907834;73;20118;-85
2021/09/17 08:28:43;;;;;;;;;;;30.20;98.20;;;;;;1906101;73;20122;-86
2021/09/17 08:31:12;;;;;;;;;;;30.30;97.90;;;;;;1908374;73;20089;-88
2021/09/17 08:33:42;;;;;;;;;;;30.30;97.90;;;;;;1921339;72;20206;-89
2021/09/17 08:36:14;;;;;;;;;;;30.30;98.20;;;;;;1918029;72;20198;-86
2021/09/17 08:38:44;;;;;;;;;;;30.30;98.40;;;;;;1914345;73;20417;-87
2021/09/17 08:41:19;;;;;;;;;;;30.30;98.70;;;;;;1914712;73;20211;-89
2021/09/17 08:43:51;;;;;;;;;;;30.30;98.20;;;;;;1913548;73;20124;-90
2021/09/17 08:46:26;;;;;;;;;;;30.30;97.60;;;;;;1900910;73;20185;-87
2021/09/17 08:49:02;;;;;;;;;;;30.30;97.60;;;;;;1895865;73;20120;-89
2021/09/17 08:51:28;;;;;;;;;;;30.20;97.80;;;;;;1908418;73;20204;-87
2021/09/17 08:54:01;;;;;;;;;;;30.20;97.70;;;;;;1899874;74;20201;-89
2021/09/17 08:56:29;;;;;;;;;;;30.20;97.50;;;;;;1919495;73;20205;-89
2021/09/17 08:59:02;;;;;;;;;;;30.20;97.50;;;;;;1910033;73;20525;-86
2021/09/17 09:01:33;;;;;;;;;;;30.20;97.40;;;;;;1918485;73;20428;-88
2021/09/17 09:04:07;;;;;;;;;;;30.10;97.40;;;;;;1924060;72;20159;-89
2021/09/17 09:06:38;;;;;;;;;;;30.10;97.80;;;;;;1904766;73;20183;-88
2021/09/17 09:09:09;;;;;;;;;;;30.10;97.70;;;;;;1924496;72;20390;-88
2021/09/17 09:11:39;;;;;;;;;;;30.10;98.00;;;;;;1930618;72;20203;-89
2021/09/17 09:14:11;;;;;;;;;;;30.00;98.40;;;;;;1878556;74;21163;-86
2021/09/17 09:16:42;;;;;;;;;;;30.10;98.60;;;;;;1894550;74;20239;-88
2021/09/17 09:19:13;;;;;;;;;;;30.00;98.00;;;;;;1897370;74;20209;-89
2021/09/17 09:21:46;;;;;;;;;;;30.00;97.80;;;;;;1899889;73;20169;-86
2021/09/17 09:24:18;;;;;;;;;;;30.00;97.70;;;;;;1896956;74;20281;-88
2021/09/17 09:26:49;;;;;;;;;;;30.00;98.50;;;;;;1899584;74;20470;-88
2021/09/17 09:29:24;;;;;;;;;;;30.00;98.40;;;;;;1888608;74;20494;-88
2021/09/17 09:34:57;;;;;;;;;;;29.90;98.90;;;;;;1912999;74;20211;-87
2021/09/17 09:37:28;;;;;;;;;;;29.90;99.70;;;;;;1910128;73;20161;-87
2021/09/17 09:40:01;;;;;;;;;;;29.90;99.40;;;;;;1912954;73;20163;-89
2021/09/17 09:42:44;;;;;;;;;;;29.90;99.20;;;;;;1904596;74;20189;-88
2021/09/17 09:45:16;;;;;;;;;;;29.90;99.90;;;;;;1971700;72;20231;-88
2021/09/17 09:47:48;;;;;;;;;;;29.80;99.80;;;;;;1970216;72;20204;-87
2021/09/17 09:50:24;;;;;;;;;;;29.80;99.90;;;;;;1959007;73;20196;-87
2021/09/17 09:52:52;;;;;;;;;;;29.80;99.90;;;;;;1965526;73;20208;-87
2021/09/17 09:55:23;;;;;;;;;;;29.70;99.90;;;;;;1959013;72;20179;-87
2021/09/17 09:57:53;;;;;;;;;;;29.70;99.80;;;;;;1961376;72;20189;-89
2021/09/17 10:00:23;;;;;;;;;;;29.60;99.80;;;;;;1964444;73;20577;-87
2021/09/17 10:05:52;;;;;;;;;;;29.60;99.90;;;;;;1920465;73;20275;-85
2021/09/17 10:11:22;;;;;;;;;;;29.50;99.90;;;;;;1929231;73;20198;-88
2021/09/17 10:13:53;;;;;;;;;;;29.50;99.90;;;;;;1935124;73;20181;-88
2021/09/17 10:16:26;;;;;;;;;;;29.50;99.90;;;;;;1956515;72;20216;-88
2021/09/17 10:18:57;;;;;;;;;;;29.40;99.60;;;;;;1957013;73;20154;-88
2021/09/17 10:21:28;;;;;;;;;;;29.40;99.90;;;;;;1952305;73;20248;-88
2021/09/17 10:23:57;;;;;;;;;;;29.40;99.90;;;;;;1956987;73;20173;-87
2021/09/17 10:26:27;;;;;;;;;;;29.30;99.90;;;;;;1917801;72;20231;-88
2021/09/17 10:28:58;;;;;;;;;;;29.30;99.90;;;;;;1886225;72;20219;-86
2021/09/17 10:31:29;;;;;;;;;;;29.30;99.90;;;;;;1891212;74;20198;-87
2021/09/17 10:37:00;;;;;;;;;;;29.20;99.90;;;;;;1902378;74;20199;-87
2021/09/17 10:39:30;;;;;;;;;;;29.20;99.90;;;;;;1890881;73;20133;-87
2021/09/17 10:42:01;;;;;;;;;;;29.20;99.90;;;;;;1906686;73;20279;-87
2021/09/17 10:44:31;;;;;;;;;;;29.20;99.90;;;;;;1927011;73;20220;-88
2021/09/17 10:47:00;;;;;;;;;;;29.20;99.90;;;;;;1922842;73;20158;-88
2021/09/17 10:49:31;;;;;;;;;;;29.10;99.90;;;;;;1932295;74;20178;-88
2021/09/17 10:52:02;;;;;;;;;;;29.10;99.90;;;;;;1938178;74;20146;-88
2021/09/17 10:57:42;;;;;;;;;;;29.10;99.90;;;;;;1889382;75;20316;-89
2021/09/17 11:00:13;;;;;;;;;;;29.10;99.90;;;;;;1872534;75;20176;-87
2021/09/17 11:05:49;;;;;;;;;;;29.00;99.90;;;;;;1844016;77;20252;-87
2021/09/17 11:11:17;;;;;;;;;;;28.90;99.90;;;;;;1817354;77;20454;-87
2021/09/17 11:16:55;;;;;;;;;;;28.90;99.90;;;;;;1822899;77;20161;-87
2021/09/17 11:19:25;;;;;;;;;;;28.90;99.90;;;;;;1809620;77;20196;-88
2021/09/17 11:21:55;;;;;;;;;;;28.90;99.90;;;;;;1833573;77;20259;-88
2021/09/17 11:24:26;;;;;;;;;;;28.80;99.90;;;;;;1820795;77;20191;-87
2021/09/17 11:26:56;;;;;;;;;;;28.80;99.90;;;;;;1829445;76;20226;-89
2021/09/17 11:29:30;;;;;;;;;;;28.70;99.90;;;;;;1806786;77;20223;-87
2021/09/17 11:32:03;;;;;;;;;;;28.70;99.90;;;;;;1820054;75;20227;-86
2021/09/17 11:34:35;;;;;;;;;;;28.70;99.90;;;;;;1864363;76;20254;-86
2021/09/17 11:37:04;;;;;;;;;;;28.70;99.90;;;;;;1840806;77;20182;-87
2021/09/17 11:39:36;;;;;;;;;;;28.70;99.90;;;;;;1843867;76;20190;-86
2021/09/17 11:42:07;;;;;;;;;;;28.60;99.90;;;;;;1866202;75;20474;-87
2021/09/17 11:44:38;;;;;;;;;;;28.60;99.90;;;;;;1879915;74;20167;-87
2021/09/17 11:47:08;;;;;;;;;;;28.60;99.90;;;;;;1867214;76;20172;-87
2021/09/17 11:49:39;;;;;;;;;;;28.60;99.90;;;;;;1876292;76;20130;-86
2021/09/17 11:52:10;;;;;;;;;;;28.60;99.90;;;;;;1874662;74;20230;-86
2021/09/17 11:54:41;;;;;;;;;;;28.60;99.90;;;;;;1874526;74;20187;-88
2021/09/17 11:57:17;;;;;;;;;;;28.60;99.90;;;;;;1880099;74;20209;-86
2021/09/17 11:59:49;;;;;;;;;;;28.60;99.90;;;;;;1869250;74;20405;-85
2021/09/17 12:02:24;;;;;;;;;;;28.60;99.90;;;;;;1892994;74;20226;-85
2021/09/17 12:04:56;;;;;;;;;;;28.60;99.90;;;;;;1863714;77;20264;-86
2021/09/17 12:07:48;;;;;;;;;;;28.60;99.90;;;;;;1892852;74;20166;-85
2021/09/17 12:10:10;;;;;;;;;;;28.60;99.90;;;;;;1897142;74;20262;-86
2021/09/17 12:12:41;;;;;;;;;;;28.60;99.90;;;;;;1907250;74;20201;-85
2021/09/17 12:15:12;;;;;;;;;;;28.60;99.90;;;;;;1883628;75;20165;-84
2021/09/17 12:17:43;;;;;;;;;;;28.50;99.90;;;;;;1866473;75;20099;-85
2021/09/17 12:20:13;;;;;;;;;;;28.50;99.90;;;;;;1869319;76;20203;-85
2021/09/17 12:22:46;;;;;;;;;;;28.50;99.90;;;;;;1875355;75;20481;-84
2021/09/17 12:25:16;;;;;;;;;;;28.50;99.90;;;;;;1882679;75;20171;-85
2021/09/17 12:27:47;;;;;;;;;;;28.40;99.90;;;;;;1858653;76;20201;-85
2021/09/17 12:30:19;;;;;;;;;;;28.40;99.90;;;;;;1864830;76;20404;-86
2021/09/17 12:32:49;;;;;;;;;;;28.40;99.90;;;;;;1869225;74;20456;-85
2021/09/17 12:35:36;;;;;;;;;;;28.40;99.90;;;;;;1924394;73;20166;-86
2021/09/17 12:38:09;;;;;;;;;;;28.40;99.90;;;;;;1884970;73;20124;-87
2021/09/17 12:40:53;;;;;;;;;;;28.40;99.90;;;;;;1923976;73;20201;-88
2021/09/17 12:43:25;;;;;;;;;;;28.30;99.90;;;;;;1851072;76;21026;-85
2021/09/17 12:45:56;;;;;;;;;;;28.30;99.90;;;;;;1873757;76;20459;-87
2021/09/17 12:51:28;;;;;;;;;;;28.30;99.90;;;;;;1871039;75;20135;-86
2021/09/17 12:54:17;;;;;;;;;;;28.30;99.90;;;;;;1838285;76;20253;-88
2021/09/17 12:59:58;;;;;;;;;;;28.30;99.90;;;;;;1897497;74;20501;-87
2021/09/17 13:02:36;;;;;;;;;;;28.30;99.90;;;;;;1909236;72;20120;-86
2021/09/17 13:05:10;;;;;;;;;;;28.20;99.90;;;;;;1894456;73;20218;-86
2021/09/17 13:13:59;;;;;;;;;;;28.20;99.90;;;;;;1794305;78;20123;-85
2021/09/17 13:16:32;;;;;;;;;;;28.10;99.90;;;;;;1797850;78;20178;-83
2021/09/17 13:19:17;;;;;;;;;;;28.10;99.90;;;;;;1791875;80;20599;-85
2021/09/17 13:22:00;;;;;;;;;;;28.10;99.90;;;;;;1775155;80;20281;-85
2021/09/17 13:27:36;;;;;;;;;;;28.10;99.90;;;;;;1797483;80;20202;-86
2021/09/17 13:30:40;;;;;;;;;;;28.10;99.90;;;;;;1797746;80;20158;-84
2021/09/17 13:32:58;;;;;;;;;;;28.10;99.90;;;;;;1677769;84;20269;-85
2021/09/17 13:35:30;;;;;;;;;;;28.10;99.90;;;;;;1686172;85;20248;-86
2021/09/17 13:38:00;;;;;;;;;;;28.10;99.90;;;;;;1687365;85;20151;-84
2021/09/17 13:40:30;;;;;;;;;;;28.00;99.90;;;;;;1687380;84;20210;-86
2021/09/17 13:43:00;;;;;;;;;;;28.00;99.90;;;;;;1686792;85;20205;-85
2021/09/17 13:45:56;;;;;;;;;;;;;;;;;;;;;
2021/09/17 13:54:47;;;;;;;;;;;28.00;99.90;;;;;;1810148;78;20218;-87
2021/09/17 13:57:31;;;;;;;;;;;28.00;99.90;;;;;;1810095;79;20216;-85
2021/09/17 13:59:55;;;;;;;;;;;28.00;99.90;;;;;;1808831;79;20494;-85
2021/09/17 14:05:18;;;;;;;;;;;27.90;99.90;;;;;;1781060;80;20155;-86
2021/09/17 14:07:47;;;;;;;;;;;27.90;99.90;;;;;;1783524;80;20210;-86
2021/09/17 14:10:18;;;;;;;;;;;27.90;99.90;;;;;;1826320;76;20164;-86
2021/09/17 14:15:59;;;;;;;;;;;27.90;99.90;;;;;;1884385;75;20146;-86
2021/09/17 14:18:30;;;;;;;;;;;27.90;99.90;;;;;;1872922;75;20249;-86
2021/09/17 14:27:04;;;;;;;;;;;27.80;99.90;;;;;;1840515;77;20528;-85
2021/09/17 14:32:43;;;;;;;;;;;27.80;99.90;;;;;;1808403;79;20178;-86
2021/09/17 14:35:13;;;;;;;;;;;27.80;99.90;;;;;;1829515;77;20192;-84
2021/09/17 14:37:42;;;;;;;;;;;27.70;99.90;;;;;;1831350;77;20191;-85
2021/09/17 14:40:12;;;;;;;;;;;27.70;99.90;;;;;;1825344;79;20250;-86
2021/09/17 14:42:43;;;;;;;;;;;27.70;99.90;;;;;;1843409;76;20157;-86
2021/09/17 14:45:12;;;;;;;;;;;27.70;99.90;;;;;;1874561;76;20267;-85
2021/09/17 14:47:43;;;;;;;;;;;27.70;99.90;;;;;;1820522;77;20197;-85
2021/09/17 14:50:13;;;;;;;;;;;27.60;99.90;;;;;;1846019;77;20295;-86
2021/09/17 14:55:52;;;;;;;;;;;27.60;99.90;;;;;;1856804;75;20166;-85
2021/09/17 14:58:23;;;;;;;;;;;27.60;99.90;;;;;;1850313;76;20271;-85
2021/09/17 15:00:45;;;;;;;;;;;27.50;99.90;;;;;;1856862;75;20232;-84
2021/09/17 15:03:20;;;;;;;;;;;27.50;99.90;;;;;;1894629;74;20469;-86
2021/09/17 15:05:47;;;;;;;;;;;27.50;99.90;;;;;;1864377;75;20194;-85
2021/09/17 15:08:17;;;;;;;;;;;27.60;99.90;;;;;;1893905;74;20209;-86
2021/09/17 15:10:47;;;;;;;;;;;27.50;99.90;;;;;;1891993;74;20169;-86
2021/09/17 15:16:22;;;;;;;;;;;27.50;99.90;;;;;;1881075;76;20242;-87
2021/09/17 15:18:52;;;;;;;;;;;27.50;99.90;;;;;;1865736;76;20221;-85
2021/09/17 15:21:22;;;;;;;;;;;27.50;99.90;;;;;;1870806;76;20163;-86
2021/09/17 15:23:56;;;;;;;;;;;27.50;99.90;;;;;;1883752;76;20218;-86
2021/09/17 15:26:25;;;;;;;;;;;27.50;99.90;;;;;;1886850;76;20504;-85
2021/09/17 15:28:55;;;;;;;;;;;27.50;99.90;;;;;;1869281;76;20656;-85
2021/09/17 15:31:25;;;;;;;;;;;27.50;99.90;;;;;;1863100;76;20418;-86
2021/09/17 15:33:55;;;;;;;;;;;27.50;99.90;;;;;;1869949;76;20260;-85
2021/09/17 15:36:24;;;;;;;;;;;27.50;99.90;;;;;;1888174;76;20230;-88
2021/09/17 15:38:55;;;;;;;;;;;27.50;99.90;;;;;;1873099;76;20190;-85
2021/09/17 15:41:27;;;;;;;;;;;27.40;99.90;;;;;;1878934;76;20497;-86
2021/09/17 15:44:01;;;;;;;;;;;27.40;99.90;;;;;;1886135;76;20238;-87
2021/09/17 15:49:40;;;;;;;;;;;27.30;99.90;;;;;;1866311;76;20176;-84
2021/09/17 15:52:09;;;;;;;;;;;27.30;99.90;;;;;;1874572;76;20504;-86
2021/09/17 15:54:46;;;;;;;;;;;27.30;99.90;;;;;;1901296;74;20149;-86
2021/09/17 15:57:16;;;;;;;;;;;27.30;99.90;;;;;;1898639;74;20227;-86
2021/09/17 15:59:45;;;;;;;;;;;27.30;99.90;;;;;;1919995;74;20195;-84
2021/09/17 16:02:15;;;;;;;;;;;27.30;99.90;;;;;;1899139;74;20172;-85
2021/09/17 16:04:45;;;;;;;;;;;27.30;99.90;;;;;;1912846;74;20196;-86
2021/09/17 16:10:09;;;;;;;;;;;27.30;99.90;;;;;;1873697;76;20202;-86
2021/09/17 16:12:39;;;;;;;;;;;27.30;99.90;;;;;;1869583;76;20234;-86
2021/09/17 16:15:09;;;;;;;;;;;27.30;99.90;;;;;;1864790;76;20226;-86
2021/09/17 16:17:39;;;;;;;;;;;27.30;99.90;;;;;;1888180;76;20185;-86
2021/09/17 16:20:10;;;;;;;;;;;27.20;99.90;;;;;;1863340;76;20246;-86
2021/09/17 16:22:41;;;;;;;;;;;27.30;99.90;;;;;;1881707;76;20214;-86
2021/09/17 16:25:11;;;;;;;;;;;27.20;99.90;;;;;;1886996;76;20287;-85
2021/09/17 16:27:41;;;;;;;;;;;27.20;99.90;;;;;;1887668;76;20395;-85
2021/09/17 16:30:11;;;;;;;;;;;27.20;99.90;;;;;;1886068;76;20226;-86
2021/09/17 16:32:43;;;;;;;;;;;27.20;99.90;;;;;;1858888;76;20142;-85
2021/09/17 16:35:14;;;;;;;;;;;27.20;99.90;;;;;;1857188;76;20569;-85
2021/09/17 16:40:37;;;;;;;;;;;27.20;99.90;;;;;;1863470;76;20165;-85
2021/09/17 16:43:11;;;;;;;;;;;27.10;99.90;;;;;;1850617;75;20215;-85
2021/09/17 16:45:41;;;;;;;;;;;27.10;99.90;;;;;;1882035;75;20171;-85
2021/09/17 16:48:12;;;;;;;;;;;27.10;99.90;;;;;;1860960;76;20245;-86
2021/09/17 16:50:43;;;;;;;;;;;27.00;99.90;;;;;;1860821;76;20193;-86
2021/09/17 16:56:12;;;;;;;;;;;27.00;99.90;;;;;;1867024;75;20199;-84
2021/09/17 16:58:42;;;;;;;;;;;27.00;99.90;;;;;;1850359;77;20449;-85
2021/09/17 17:01:11;;;;;;;;;;;27.00;99.90;;;;;;1865569;77;20152;-85
2021/09/17 17:03:50;;;;;;;;;;;26.90;99.90;;;;;;1849063;77;20233;-86
2021/09/17 17:09:26;;;;;;;;;;;26.80;99.90;;;;;;1852662;77;20178;-87
2021/09/17 17:12:02;;;;;;;;;;;26.80;99.90;;;;;;1845821;77;21063;-85
2021/09/17 17:14:37;;;;;;;;;;;26.70;99.90;;;;;;1841965;77;20501;-86